ADDS METAR Data INFO
IDs: Format: Raw Decoded Include TAF

Data at: 0502 UTC 23 May 2017

KSPS 230452Z AUTO 06006KT 10SM BKN035 OVC045 17/14 A2994 RMK AO2 WSHFT 0350 LTG DSNT SE AND SW RAE0358 SLP131 P0000 T01670139
KSPS 230406Z AUTO 05014KT 10SM FEW014 SCT027 BKN033 17/14 A2995 RMK AO2 WSHFT 0350 LTG DSNT ALQDS RAE0358 P0000 T01670139
KSPS 230352Z AUTO 04012G16KT 9SM VCTS -RA SCT024 BKN031 BKN037 17/16 A2995 RMK AO2 WSHFT 0333 LTG DSNT E AND SE AND W RAB34 SLP134 P0002 T01720156
KSPS 230347Z AUTO 11013KT 7SM VCTS RA SCT028 BKN037 OVC090 17/14 A2992 RMK AO2 WSHFT 0333 LTG DSNT NE AND E AND W RAB34 P0002
KSPS 230252Z 18006KT 10SM VCTS FEW038 BKN055 19/16 A2992 RMK AO2 LTG DSNT W-NE SLP122 T01940161 53005
KSPS 230152Z 11004KT 10SM BKN035 BKN065 OVC100 22/16 A2991 RMK AO2 SLP118 T02170156
KSPS 230052Z 13006KT 10SM BKN090 23/16 A2988 RMK AO2 SLP111 T02280156
KSPS 222352Z 12006KT 10SM FEW065 BKN090 23/15 A2990 RMK AO2 SLP117 T02330150 10250 20206 58023
KSPS 222252Z 13005KT 10SM FEW040 OVC055 23/15 A2993 RMK AO2 SLP129 T02330150
KSPS 222152Z 16003KT 10SM BKN037 OVC055 24/14 A2994 RMK AO2 SLP132 T02390144
KSPS 222052Z VRB05KT 10SM BKN030 24/14 A2997 RMK AO2 SLP140 T02390144 56024
KSPS 221952Z 08007KT 10SM BKN030 23/14 A3000 RMK AO2 SLP149 T02280144
KSPS 221922Z 10006KT 10SM BKN030 22/14 A3001 RMK AO2 T02220144
KSPS 221852Z VRB05KT 10SM BKN025 23/15 A3002 RMK AO2 SLP156 T02330150
KSPS 221752Z VRB04KT 10SM BKN023 BKN037 21/14 A3005 RMK AO2 SLP167 T02060139 10211 20139 56024
KSPS 221658Z 05012G16KT 10SM BKN022 21/14 A3006 RMK AO2 T02060139
KSPS 221652Z 06013KT 10SM SCT021 BKN035 19/14 A3006 RMK AO2 SLP173 T01940139
KSPS 221552Z 01004KT 10SM OVC035 19/14 A3010 RMK AO2 SLP185 T01940139
KSPS 221452Z 22005KT 10SM BKN034 18/13 A3012 RMK AO2 SLP191 T01780133 52013
KSPS 221352Z 20004KT 10SM BKN034 17/13 A3011 RMK AO2 SLP188 T01670133
KSPS 221252Z 00000KT 10SM BKN033 15/12 A3009 RMK AO2 SLP181 T01500122
KSPS 221152Z 00000KT 10SM SCT033 BKN080 14/12 A3008 RMK AO2 SLP178 T01390117 10156 20117 55006
KSPS 221052Z 00000KT 10SM SCT037 BKN080 13/11 A3008 RMK AO2 SLP178 T01280111
KSPS 220952Z 12005KT 10SM FEW080 13/11 A3009 RMK AO2 SLP180 T01280111
KSPS 220852Z AUTO 11008KT 10SM OVC075 14/12 A3010 RMK AO2 SLP182 T01390117 58006
KSPS 220752Z AUTO 07003KT 10SM CLR 14/11 A3013 RMK AO2 SLP194 T01440111
KSPS 220652Z AUTO 09004KT 10SM CLR 15/11 A3012 RMK AO2 SLP190 T01500111
KSPS 220552Z AUTO 11006KT 10SM CLR 16/12 A3011 RMK AO2 SLP188 T01560117 10228 20156 402610111 58000
KSPS 220452Z AUTO 10006KT 10SM CLR 17/12 A3012 RMK AO2 SLP190 T01670117
KSPS 220352Z AUTO 10007KT 10SM CLR 17/12 A3013 RMK AO2 SLP195 T01720122
KSPS 220252Z AUTO 10006KT 10SM CLR 18/13 A3012 RMK AO2 SLP190 T01830133 53011
KSPS 220152Z AUTO 10007KT 10SM CLR 19/13 A3010 RMK AO2 SLP186 T01940128
KSPS 220052Z AUTO 12006KT 10SM CLR 22/13 A3009 RMK AO2 SLP183 T02170128
KSPS 212352Z AUTO 13006KT 10SM CLR 23/12 A3008 RMK AO2 SLP180 60000 T02280122 10261 20228 56011
KSPS 212252Z AUTO 13010KT 10SM CLR 24/11 A3010 RMK AO2 RAE22 SLP185 P0000 T02390106
KSPS 212152Z AUTO 10012KT 10SM -RA CLR 25/11 A3010 RMK AO2 SLP184 P0000 T02500106
KSPS 212052Z AUTO 08011KT 10SM -RA CLR 26/10 A3012 RMK AO2 RAB00E19B43 SLP190 P0000 60000 T02560100 55017
KSPS 211952Z 04011KT 10SM CLR 26/10 A3011 RMK AO2 RAB42E50 SLP186 P0000 T02610100
KSPS 211852Z 09007KT 10SM SCT180 25/09 A3016 RMK AO2 SLP205 T02500094
KSPS 211752Z 11008KT 10SM SCT180 24/08 A3017 RMK AO2 SLP207 T02440083 10244 20111 58011


Page loaded:  05:02 UTC  |   10:02 PM Pacific  |   11:02 PM Mountain  |   12:02 AM Central  |   01:02 AM Eastern

 

ADVISORIES

FORECASTS

FORECASTS

OBSERVATIONS

USER TOOLS

ABOUT US